Time;durP1;ratioP1;P1;durP2;ratioP2;P2;SDS_P1;SDS_P2;PMS_P1;PMS_P2;Temp;Humidity;BMP_temperature;BMP_pressure;BME280_temperature;BME280_humidity;BME280_pressure;Samples;Min_cycle;Max_cycle;Signal;HPM_P1;HPM_P2
2021/04/17 00:01:50;;;;;;;4.90;2.85;;;4.10;99.90;;;;;;5113410;28;20024;-72
2021/04/17 00:04:16;;;;;;;5.00;3.28;;;4.10;99.90;;;;;;5112805;28;20066;-72
2021/04/17 00:06:42;;;;;;;10.77;4.20;;;4.00;99.90;;;;;;5112751;28;22066;-72
2021/04/17 00:09:15;;;;;;;7.40;3.63;;;4.00;99.90;;;;;;5112947;28;20562;-72
2021/04/17 00:11:42;;;;;;;8.23;3.85;;;4.00;99.90;;;;;;5112158;28;20023;-72
2021/04/17 00:14:11;;;;;;;7.20;3.22;;;4.00;99.90;;;;;;5113138;27;20030;-72
2021/04/17 00:16:37;;;;;;;7.28;3.45;;;4.00;99.90;;;;;;5111942;28;20032;-72
2021/04/17 00:19:03;;;;;;;7.28;3.40;;;4.00;99.90;;;;;;5112928;28;20015;-71
2021/04/17 00:21:28;;;;;;;6.55;3.33;;;4.00;99.90;;;;;;5112586;28;20103;-72
2021/04/17 00:23:54;;;;;;;7.70;3.60;;;4.00;99.90;;;;;;5111446;28;20507;-71
2021/04/17 00:26:20;;;;;;;4.82;3.00;;;4.00;99.90;;;;;;5112341;28;20027;-72
2021/04/17 00:28:45;;;;;;;8.75;3.20;;;3.90;99.90;;;;;;5112822;28;20063;-72
2021/04/17 00:31:11;;;;;;;5.45;3.63;;;3.90;99.90;;;;;;5112259;28;20011;-71
2021/04/17 00:33:37;;;;;;;5.57;3.60;;;3.90;99.90;;;;;;5112197;28;20770;-72
2021/04/17 00:36:03;;;;;;;6.55;3.38;;;3.90;99.90;;;;;;5112725;28;20015;-71
2021/04/17 00:38:28;;;;;;;6.15;3.05;;;3.90;99.90;;;;;;5111582;28;20076;-72
2021/04/17 00:40:55;;;;;;;6.10;3.22;;;3.60;99.90;;;;;;5112783;28;20026;-71
2021/04/17 00:43:21;;;;;;;8.65;3.92;;;3.90;99.90;;;;;;5112620;28;20321;-71
2021/04/17 00:45:47;;;;;;;6.28;3.15;;;3.80;99.90;;;;;;5116638;28;20068;-72
2021/04/17 00:48:15;;;;;;;5.72;3.58;;;3.80;99.90;;;;;;5117438;28;20050;-71
2021/04/17 00:50:42;;;;;;;6.45;3.03;;;3.80;99.90;;;;;;5106939;28;20012;-71
2021/04/17 00:53:08;;;;;;;12.10;3.75;;;3.80;99.90;;;;;;5113188;28;20028;-71
2021/04/17 00:55:34;;;;;;;8.35;3.35;;;3.80;99.90;;;;;;5112344;28;20022;-72
2021/04/17 00:58:04;;;;;;;11.82;3.63;;;3.80;99.90;;;;;;5109096;28;20076;-71
2021/04/17 01:00:32;;;;;;;9.40;3.45;;;4.20;99.90;;;;;;5107658;28;20475;-72
2021/04/17 01:03:34;;;;;;;4.13;3.17;;;3.70;99.90;;;;;;5113499;28;20031;-71
2021/04/17 01:06:04;;;;;;;5.95;3.25;;;3.70;99.90;;;;;;5092620;28;20939;-71
2021/04/17 01:08:40;;;;;;;4.53;2.95;;;3.70;99.90;;;;;;5101051;28;20032;-71
2021/04/17 01:11:09;;;;;;;9.48;4.07;;;3.70;99.90;;;;;;5095482;28;20024;-72
2021/04/17 01:13:35;;;;;;;8.20;3.05;;;3.70;99.90;;;;;;5108736;28;20029;-71
2021/04/17 01:16:05;;;;;;;4.15;3.03;;;3.70;99.90;;;;;;5097766;28;20024;-71
2021/04/17 01:18:32;;;;;;;7.82;4.22;;;3.70;99.90;;;;;;5111746;28;20043;-70
2021/04/17 01:20:58;;;;;;;10.32;4.20;;;3.70;99.90;;;;;;5097241;28;20059;-72
2021/04/17 01:23:33;;;;;;;9.90;3.28;;;3.60;99.90;;;;;;5104429;28;20024;-71
2021/04/17 01:26:00;;;;;;;9.48;3.13;;;3.60;99.90;;;;;;5106409;28;20059;-72
2021/04/17 01:28:33;;;;;;;7.40;2.97;;;3.60;99.90;;;;;;5110934;28;20387;-71
2021/04/17 01:30:59;;;;;;;8.02;3.40;;;3.60;99.90;;;;;;5112269;28;20382;-71
2021/04/17 01:33:32;;;;;;;4.70;2.92;;;3.60;99.90;;;;;;5111735;28;20032;-72
2021/04/17 01:36:00;;;;;;;4.45;3.28;;;3.60;99.90;;;;;;5113041;28;20028;-71
2021/04/17 01:38:26;;;;;;;11.40;3.00;;;3.50;99.90;;;;;;5115662;28;20111;-72
2021/04/17 01:41:01;;;;;;;7.35;3.17;;;3.50;99.90;;;;;;5104971;28;20090;-72
2021/04/17 01:43:30;;;;;;;5.47;3.08;;;3.50;99.90;;;;;;5114045;28;20488;-71
2021/04/17 01:46:02;;;;;;;3.53;2.72;;;3.50;99.90;;;;;;5116190;28;20024;-71
2021/04/17 01:48:29;;;;;;;3.75;2.35;;;3.50;99.90;;;;;;5114504;28;20499;-71
2021/04/17 01:50:56;;;;;;;8.35;3.42;;;3.50;99.90;;;;;;5115910;28;20099;-72
2021/04/17 01:53:27;;;;;;;9.77;3.17;;;3.50;99.90;;;;;;5115376;28;20024;-71
2021/04/17 01:55:55;;;;;;;14.63;5.70;;;3.40;99.90;;;;;;5115367;27;20023;-71
2021/04/17 01:58:23;;;;;;;6.68;3.28;;;3.40;99.90;;;;;;5115460;28;20038;-71
2021/04/17 02:00:51;;;;;;;6.55;3.22;;;3.40;99.90;;;;;;5108981;28;20099;-71
2021/04/17 02:03:17;;;;;;;9.65;3.17;;;3.40;99.90;;;;;;5107879;28;20031;-71
2021/04/17 02:05:46;;;;;;;10.55;4.22;;;3.40;99.90;;;;;;5115404;28;20024;-71
2021/04/17 02:08:12;;;;;;;8.43;3.13;;;3.40;99.90;;;;;;5115546;28;20031;-70
2021/04/17 02:10:38;;;;;;;6.15;3.10;;;3.30;99.90;;;;;;5114605;28;20502;-71
2021/04/17 02:13:06;;;;;;;6.03;2.85;;;3.30;99.90;;;;;;5115417;28;20506;-71
2021/04/17 02:15:34;;;;;;;9.38;3.00;;;3.30;99.90;;;;;;5100659;28;20039;-70
2021/04/17 02:18:18;;;;;;;9.27;3.22;;;3.30;99.90;;;;;;5114775;28;20023;-71
2021/04/17 02:20:50;;;;;;;6.00;3.00;;;3.20;99.90;;;;;;5115080;28;20486;-70
2021/04/17 02:23:17;;;;;;;5.57;3.10;;;3.20;99.90;;;;;;5114440;28;20055;-72
2021/04/17 02:25:43;;;;;;;6.00;3.33;;;3.20;99.90;;;;;;5114879;28;20380;-71
2021/04/17 02:28:09;;;;;;;3.85;2.47;;;3.20;99.90;;;;;;5115151;28;20073;-71
2021/04/17 02:30:38;;;;;;;6.05;2.83;;;3.20;99.90;;;;;;5114134;28;20023;-70
2021/04/17 02:33:05;;;;;;;3.97;2.90;;;3.20;99.90;;;;;;5115124;28;20023;-71
2021/04/17 02:35:31;;;;;;;9.40;2.50;;;3.20;99.90;;;;;;5114928;28;20020;-71
2021/04/17 02:37:56;;;;;;;6.72;3.30;;;3.20;99.90;;;;;;5114071;28;20026;-71
2021/04/17 02:40:22;;;;;;;8.07;3.20;;;3.20;99.90;;;;;;5114776;28;20106;-73
2021/04/17 02:42:48;;;;;;;7.15;3.20;;;3.20;99.90;;;;;;5114858;28;20034;-71
2021/04/17 02:45:14;;;;;;;6.40;2.55;;;3.20;99.90;;;;;;5114137;28;20019;-72
2021/04/17 02:47:39;;;;;;;6.40;3.00;;;3.20;99.90;;;;;;5113546;28;20071;-71
2021/04/17 02:50:05;;;;;;;10.68;3.03;;;3.10;99.90;;;;;;5117693;28;20016;-70
2021/04/17 02:52:31;;;;;;;5.60;3.72;;;3.10;99.90;;;;;;5122914;28;20027;-71
2021/04/17 02:54:56;;;;;;;8.13;3.10;;;3.00;99.90;;;;;;5114835;28;20345;-71
2021/04/17 02:57:23;;;;;;;10.55;3.40;;;3.00;99.90;;;;;;5114549;28;20494;-72
2021/04/17 02:59:48;;;;;;;4.90;3.13;;;3.00;99.90;;;;;;5114502;28;20024;-72
2021/04/17 03:02:14;;;;;;;6.47;2.90;;;3.00;99.90;;;;;;5120835;28;20532;-70
2021/04/17 03:04:40;;;;;;;10.23;3.25;;;3.00;99.90;;;;;;5103075;28;20024;-71
2021/04/17 03:07:06;;;;;;;9.52;4.25;;;3.00;99.90;;;;;;5118445;28;20034;-71
2021/04/17 03:09:31;;;;;;;5.55;4.25;;;3.00;99.90;;;;;;5106032;28;20015;-71
2021/04/17 03:11:57;;;;;;;7.95;3.53;;;2.90;99.90;;;;;;5114683;28;20451;-71
2021/04/17 03:14:22;;;;;;;6.68;3.30;;;2.90;99.90;;;;;;5107860;28;20099;-71
2021/04/17 03:16:48;;;;;;;14.68;4.32;;;2.90;99.90;;;;;;5105334;28;20062;-71
2021/04/17 03:19:14;;;;;;;8.40;3.20;;;2.90;99.90;;;;;;5099946;28;20416;-72
2021/04/17 03:21:39;;;;;;;6.97;3.42;;;2.80;99.90;;;;;;5113268;28;20070;-72
2021/04/17 03:24:05;;;;;;;10.23;3.88;;;2.80;99.90;;;;;;5113853;28;20040;-70
2021/04/17 03:26:31;;;;;;;4.55;3.40;;;2.80;99.90;;;;;;5113063;28;20062;-72
2021/04/17 03:28:56;;;;;;;6.90;3.42;;;2.80;99.90;;;;;;5113850;28;20050;-71
2021/04/17 03:31:22;;;;;;;6.35;3.40;;;2.80;99.90;;;;;;5113529;28;20060;-71
2021/04/17 03:33:47;;;;;;;6.47;3.72;;;2.80;99.90;;;;;;5113417;28;20031;-71
2021/04/17 03:36:13;;;;;;;7.40;3.33;;;2.80;99.90;;;;;;5113876;28;20470;-71
2021/04/17 03:38:38;;;;;;;9.80;4.05;;;2.80;99.90;;;;;;5113514;28;20026;-71
2021/04/17 03:41:04;;;;;;;6.78;3.80;;;2.80;99.90;;;;;;5113078;28;20015;-71
2021/04/17 03:43:30;;;;;;;6.57;3.60;;;2.80;99.90;;;;;;5113360;28;20066;-72
2021/04/17 03:45:55;;;;;;;9.18;3.75;;;2.80;99.90;;;;;;5113570;28;20486;-71
2021/04/17 03:48:21;;;;;;;10.38;3.28;;;2.70;99.90;;;;;;5112365;28;20048;-71
2021/04/17 03:50:47;;;;;;;5.18;3.30;;;2.70;99.90;;;;;;5113742;28;20502;-72
2021/04/17 03:53:13;;;;;;;6.40;3.72;;;2.70;99.90;;;;;;5113142;28;20421;-71
2021/04/17 03:55:39;;;;;;;11.52;4.25;;;2.70;99.90;;;;;;5112432;28;20035;-71
2021/04/17 03:58:04;;;;;;;5.47;3.83;;;2.70;99.90;;;;;;5113026;28;20023;-71
2021/04/17 04:00:30;;;;;;;6.80;3.90;;;2.70;99.90;;;;;;5113101;28;20446;-71
2021/04/17 04:02:56;;;;;;;7.07;3.85;;;2.60;99.90;;;;;;5112912;28;20049;-70
2021/04/17 04:05:21;;;;;;;15.23;4.68;;;2.70;99.90;;;;;;5113011;28;20030;-72
2021/04/17 04:07:47;;;;;;;15.50;5.32;;;2.70;99.90;;;;;;5113387;28;20035;-71
2021/04/17 04:10:13;;;;;;;6.90;4.18;;;2.60;99.90;;;;;;5112431;28;20091;-72
2021/04/17 04:12:41;;;;;;;9.80;4.13;;;2.60;99.90;;;;;;5112931;28;20030;-71
2021/04/17 04:15:08;;;;;;;10.82;5.15;;;2.60;99.90;;;;;;5101226;28;20032;-71
2021/04/17 04:17:33;;;;;;;14.27;4.60;;;2.60;99.90;;;;;;5109704;28;20089;-72
2021/04/17 04:19:59;;;;;;;8.50;5.03;;;2.50;99.90;;;;;;5113083;28;20027;-71
2021/04/17 04:22:24;;;;;;;8.68;4.43;;;2.50;99.90;;;;;;5098312;27;20119;-70
2021/04/17 04:24:50;;;;;;;15.82;5.68;;;2.60;99.90;;;;;;5112323;28;20023;-70
2021/04/17 04:27:15;;;;;;;8.77;4.90;;;2.50;99.90;;;;;;5112709;28;20031;-70
2021/04/17 04:29:41;;;;;;;8.57;4.65;;;2.50;99.90;;;;;;5111559;28;20031;-71
2021/04/17 04:32:07;;;;;;;7.38;5.28;;;2.50;99.90;;;;;;5101016;28;20034;-71
2021/04/17 04:34:32;;;;;;;12.10;6.18;;;2.50;99.90;;;;;;5109811;28;20055;-71
2021/04/17 04:36:58;;;;;;;9.80;5.13;;;2.50;99.90;;;;;;5111908;28;20511;-70
2021/04/17 04:39:24;;;;;;;15.07;6.20;;;2.50;99.90;;;;;;5112148;27;20499;-70
2021/04/17 04:41:49;;;;;;;11.18;5.70;;;2.50;99.90;;;;;;5112178;28;20472;-71
2021/04/17 04:44:15;;;;;;;11.63;6.38;;;2.50;99.90;;;;;;5111781;28;20028;-70
2021/04/17 04:46:40;;;;;;;9.35;5.57;;;2.50;99.90;;;;;;5106949;28;20069;-71
2021/04/17 04:49:06;;;;;;;11.23;6.05;;;2.50;99.90;;;;;;5104178;28;20031;-71
2021/04/17 04:51:32;;;;;;;8.68;5.15;;;2.50;99.90;;;;;;5113190;28;20390;-70
2021/04/17 04:54:06;;;;;;;14.32;6.53;;;2.50;99.90;;;;;;5120638;28;20348;-71
2021/04/17 04:56:32;;;;;;;10.52;5.45;;;2.50;99.90;;;;;;5112259;28;20024;-71
2021/04/17 04:58:58;;;;;;;17.38;7.68;;;2.50;99.90;;;;;;5111870;28;20023;-72
2021/04/17 05:01:24;;;;;;;8.45;6.20;;;2.50;99.90;;;;;;5114734;28;20031;-71
2021/04/17 05:03:50;;;;;;;13.95;6.10;;;2.50;99.90;;;;;;5116177;28;20420;-71
2021/04/17 05:06:16;;;;;;;12.40;6.00;;;2.50;99.90;;;;;;5118929;28;20023;-70
2021/04/17 05:08:42;;;;;;;13.30;6.60;;;2.60;99.90;;;;;;5119143;28;20489;-71
2021/04/17 05:11:07;;;;;;;12.13;6.10;;;2.60;99.90;;;;;;5111982;28;20039;-72
2021/04/17 05:13:33;;;;;;;13.30;6.85;;;2.60;99.90;;;;;;5111260;28;20030;-71
2021/04/17 05:15:58;;;;;;;11.63;6.18;;;2.60;99.90;;;;;;5097977;28;20012;-71
2021/04/17 05:18:24;;;;;;;13.93;6.75;;;2.60;99.90;;;;;;5111649;28;20055;-71
2021/04/17 05:20:49;;;;;;;18.17;7.93;;;2.60;99.90;;;;;;5111442;28;20020;-71
2021/04/17 05:23:15;;;;;;;11.00;6.63;;;2.70;99.90;;;;;;5112214;28;20027;-71
2021/04/17 05:25:41;;;;;;;20.58;7.93;;;2.70;99.90;;;;;;5111638;28;20024;-71
2021/04/17 05:28:08;;;;;;;16.52;7.70;;;2.70;99.90;;;;;;5111548;28;20035;-70
2021/04/17 05:30:34;;;;;;;25.77;8.32;;;2.80;99.90;;;;;;5111818;28;20047;-69
2021/04/17 05:32:59;;;;;;;18.33;8.32;;;2.70;99.90;;;;;;5111571;28;20034;-72
2021/04/17 05:35:25;;;;;;;22.60;8.25;;;2.80;99.90;;;;;;5112026;28;20057;-71
2021/04/17 05:37:50;;;;;;;22.92;9.00;;;2.80;99.90;;;;;;5112094;28;20050;-71
2021/04/17 05:40:16;;;;;;;20.77;9.02;;;2.80;99.90;;;;;;5111492;28;20011;-71
2021/04/17 05:42:42;;;;;;;19.60;8.48;;;2.90;99.90;;;;;;5111564;28;20110;-70
2021/04/17 05:45:09;;;;;;;15.30;8.23;;;2.90;99.90;;;;;;5112326;28;20016;-72
2021/04/17 05:47:35;;;;;;;13.88;7.88;;;3.00;99.90;;;;;;5111096;28;20074;-71
2021/04/17 05:50:00;;;;;;;10.68;8.07;;;3.00;99.90;;;;;;5131031;28;20351;-71
2021/04/17 05:52:26;;;;;;;18.02;8.18;;;3.10;99.90;;;;;;5132085;28;20034;-71
2021/04/17 05:54:51;;;;;;;16.92;8.32;;;3.10;99.90;;;;;;5131802;27;20059;-70
2021/04/17 05:57:23;;;;;;;14.30;8.30;;;3.20;99.90;;;;;;5132278;27;20520;-70
2021/04/17 05:59:49;;;;;;;14.55;7.75;;;3.30;99.90;;;;;;5132390;27;20386;-71
2021/04/17 06:02:14;;;;;;;17.17;7.60;;;3.30;99.90;;;;;;5131610;27;20023;-71
2021/04/17 06:04:41;;;;;;;10.70;7.65;;;3.40;99.90;;;;;;5132163;28;20030;-71
2021/04/17 06:07:07;;;;;;;19.13;8.05;;;3.40;99.90;;;;;;5132331;28;20039;-70
2021/04/17 06:09:32;;;;;;;16.80;8.30;;;3.50;99.90;;;;;;5131670;28;20387;-72
2021/04/17 06:11:58;;;;;;;15.75;8.10;;;3.50;99.90;;;;;;5133203;27;20016;-72
2021/04/17 06:14:24;;;;;;;11.05;8.65;;;3.60;99.90;;;;;;5119621;28;20455;-71
2021/04/17 06:16:49;;;;;;;15.95;8.73;;;3.70;99.90;;;;;;5122612;28;20034;-71
2021/04/17 06:19:15;;;;;;;16.10;8.65;;;3.80;99.90;;;;;;5132166;28;20026;-71
2021/04/17 06:21:40;;;;;;;19.10;9.65;;;3.80;99.90;;;;;;5114936;28;20472;-71
2021/04/17 06:24:06;;;;;;;19.00;9.95;;;3.90;99.90;;;;;;5112780;28;20499;-71
2021/04/17 06:26:32;;;;;;;21.10;10.48;;;4.00;99.90;;;;;;5114682;28;20031;-71
2021/04/17 06:28:58;;;;;;;20.77;11.60;;;4.00;99.90;;;;;;5117650;27;20027;-71
2021/04/17 06:31:24;;;;;;;25.60;12.75;;;4.20;99.90;;;;;;5116428;27;20462;-71
2021/04/17 06:33:50;;;;;;;17.70;11.98;;;4.20;99.90;;;;;;5114521;28;20031;-70
2021/04/17 06:36:16;;;;;;;24.00;13.07;;;4.30;99.90;;;;;;5113992;27;20020;-71
2021/04/17 06:38:41;;;;;;;23.65;12.25;;;4.40;99.90;;;;;;5119733;27;20024;-71
2021/04/17 06:41:10;;;;;;;16.13;11.30;;;4.50;99.90;;;;;;5117115;27;20016;-72
2021/04/17 06:43:37;;;;;;;26.17;12.05;;;4.60;99.90;;;;;;5113397;28;20038;-73
2021/04/17 06:46:03;;;;;;;17.25;11.23;;;4.60;99.90;;;;;;5114324;28;20047;-71
2021/04/17 06:48:31;;;;;;;18.42;10.73;;;4.70;99.90;;;;;;5102428;27;20051;-71
2021/04/17 06:50:57;;;;;;;17.98;10.10;;;4.90;99.90;;;;;;5096194;28;20050;-71
2021/04/17 06:53:25;;;;;;;21.50;9.93;;;5.00;99.90;;;;;;5098360;28;20032;-71
2021/04/17 06:55:52;;;;;;;9.27;8.35;;;5.10;99.90;;;;;;5095181;28;20023;-71
2021/04/17 06:58:19;;;;;;;9.70;8.27;;;5.20;99.90;;;;;;5093473;28;20391;-72
2021/04/17 07:00:45;;;;;;;18.83;8.55;;;5.30;99.90;;;;;;5094448;28;20079;-72
2021/04/17 07:03:11;;;;;;;12.18;8.10;;;5.40;99.90;;;;;;5101681;28;20028;-71
2021/04/17 07:05:36;;;;;;;17.25;8.95;;;5.50;99.90;;;;;;5095174;28;20463;-72
2021/04/17 07:08:05;;;;;;;15.80;6.90;;;5.60;99.90;;;;;;5096301;28;20032;-72
2021/04/17 07:10:31;;;;;;;15.85;6.95;;;5.70;99.90;;;;;;5094670;28;20020;-71
2021/04/17 07:13:07;;;;;;;14.27;6.50;;;5.80;99.90;;;;;;5093563;28;20096;-73
2021/04/17 07:15:34;;;;;;;9.98;5.47;;;5.90;99.90;;;;;;5094752;28;20028;-73
2021/04/17 07:18:20;;;;;;;17.70;7.68;;;6.00;99.90;;;;;;5102421;28;20483;-71
2021/04/17 07:20:45;;;;;;;12.95;5.45;;;6.10;99.90;;;;;;5093146;28;20043;-73
2021/04/17 07:23:42;;;;;;;9.18;4.18;;;6.20;99.90;;;;;;5093926;28;20012;-72
2021/04/17 07:26:10;;;;;;;10.75;4.30;;;6.30;99.90;;;;;;5102635;28;20026;-74
2021/04/17 07:28:38;;;;;;;9.95;3.67;;;6.50;99.90;;;;;;5112526;28;20479;-75
2021/04/17 07:31:04;;;;;;;6.97;3.55;;;6.50;99.90;;;;;;5108907;28;21384;-75
2021/04/17 07:33:31;;;;;;;10.38;3.72;;;6.60;99.90;;;;;;5110405;28;20023;-74
2021/04/17 07:35:57;;;;;;;7.47;3.67;;;6.70;99.90;;;;;;5111072;28;20476;-75
2021/04/17 07:38:25;;;;;;;5.55;3.20;;;6.70;99.90;;;;;;5111935;28;20080;-73
2021/04/17 07:41:10;;;;;;;8.75;3.05;;;6.70;99.90;;;;;;5112446;28;20047;-74
2021/04/17 07:43:55;;;;;;;6.00;2.60;;;6.90;99.90;;;;;;5093343;28;20027;-74
2021/04/17 07:46:27;;;;;;;3.80;2.78;;;6.90;99.90;;;;;;5093215;28;20024;-75
2021/04/17 07:49:09;;;;;;;7.05;3.70;;;7.00;99.90;;;;;;5092514;28;20043;-75
2021/04/17 07:52:13;;;;;;;7.47;2.33;;;7.00;99.90;;;;;;5092968;28;20016;-74
2021/04/17 07:55:00;;;;;;;7.00;2.17;;;7.10;99.90;;;;;;5091878;28;20039;-75
2021/04/17 07:57:33;;;;;;;3.58;1.92;;;7.20;99.90;;;;;;5092725;28;20072;-74
2021/04/17 07:59:59;;;;;;;3.00;1.30;;;7.30;99.90;;;;;;5092936;28;20535;-75
2021/04/17 08:02:26;;;;;;;2.85;1.70;;;7.30;99.90;;;;;;5092370;28;20119;-74
2021/04/17 08:04:52;;;;;;;4.95;2.70;;;7.30;99.90;;;;;;5093024;28;20422;-74
2021/04/17 08:07:18;;;;;;;5.13;1.83;;;7.50;99.90;;;;;;5092885;28;20111;-73
2021/04/17 08:09:46;;;;;;;4.15;2.22;;;7.60;99.90;;;;;;5092438;28;20539;-76
2021/04/17 08:12:14;;;;;;;4.35;2.03;;;7.70;99.90;;;;;;5112873;28;20036;-77
2021/04/17 08:14:40;;;;;;;6.53;2.00;;;7.80;99.90;;;;;;5105281;28;20067;-76
2021/04/17 08:17:06;;;;;;;4.78;2.22;;;7.90;99.90;;;;;;5096801;28;20047;-75
2021/04/17 08:19:32;;;;;;;4.45;1.95;;;8.10;99.90;;;;;;5113336;28;20028;-75
2021/04/17 08:21:57;;;;;;;5.38;2.53;;;8.00;99.90;;;;;;5112596;28;20514;-74
2021/04/17 08:24:26;;;;;;;6.65;2.08;;;8.10;99.90;;;;;;5113172;28;20103;-75
2021/04/17 08:26:54;;;;;;;6.03;1.98;;;8.10;99.90;;;;;;5113061;27;20021;-74
2021/04/17 08:29:47;;;;;;;7.28;1.77;;;8.20;99.90;;;;;;5111822;28;20031;-74
2021/04/17 08:32:30;;;;;;;2.28;1.40;;;8.20;99.90;;;;;;5108867;28;20022;-74
2021/04/17 08:35:10;;;;;;;3.38;1.30;;;8.20;99.90;;;;;;5117391;27;20023;-76
2021/04/17 08:37:54;;;;;;;5.40;1.40;;;8.30;99.90;;;;;;5105113;27;20031;-75
2021/04/17 08:40:35;;;;;;;1.98;1.30;;;8.30;99.90;;;;;;5100933;27;20024;-75
2021/04/17 08:43:01;;;;;;;5.47;1.50;;;8.40;99.90;;;;;;5110679;27;20058;-77
2021/04/17 08:45:26;;;;;;;4.78;1.25;;;8.50;99.90;;;;;;5114309;27;20043;-76
2021/04/17 08:47:54;;;;;;;4.63;1.30;;;8.50;99.90;;;;;;5117200;27;20456;-76
2021/04/17 08:50:31;;;;;;;4.82;1.33;;;8.50;99.90;;;;;;5124274;27;20027;-77
2021/04/17 08:53:11;;;;;;;3.63;1.30;;;8.50;99.90;;;;;;5133859;27;20023;-76
2021/04/17 08:55:37;;;;;;;5.30;1.98;;;8.70;99.80;;;;;;5131788;27;20031;-77
2021/04/17 08:58:19;;;;;;;4.03;1.27;;;8.70;98.90;;;;;;5124234;27;20120;-77
2021/04/17 09:00:51;;;;;;;3.72;1.35;;;8.80;98.90;;;;;;5119004;27;20023;-74
2021/04/17 09:03:37;;;;;;;4.88;1.73;;;8.80;97.60;;;;;;5126710;27;20016;-75
2021/04/17 09:06:06;;;;;;;2.42;1.00;;;8.90;97.20;;;;;;5131117;27;20076;-76
2021/04/17 09:08:31;;;;;;;2.55;1.27;;;8.90;96.70;;;;;;5134121;27;20031;-76
2021/04/17 09:10:57;;;;;;;2.30;1.10;;;9.00;97.00;;;;;;5133419;27;20031;-76
2021/04/17 09:13:26;;;;;;;5.70;2.00;;;9.00;96.90;;;;;;5131538;28;20406;-76
2021/04/17 09:16:06;;;;;;;2.28;1.38;;;9.20;97.60;;;;;;5131199;28;20065;-76
2021/04/17 09:18:37;;;;;;;3.22;1.25;;;9.10;95.30;;;;;;5130967;27;20019;-76
2021/04/17 09:21:10;;;;;;;3.67;1.48;;;9.10;95.20;;;;;;5131441;27;20023;-76
2021/04/17 09:23:37;;;;;;;1.80;1.00;;;9.20;95.90;;;;;;5131751;28;20027;-76
2021/04/17 09:26:03;;;;;;;2.13;1.40;;;9.30;95.80;;;;;;5130102;28;20093;-77
2021/04/17 09:28:36;;;;;;;2.42;1.33;;;9.30;95.60;;;;;;5124271;27;20475;-76
2021/04/17 09:31:03;;;;;;;4.53;1.23;;;9.40;95.40;;;;;;5126183;28;20055;-76
2021/04/17 09:33:29;;;;;;;1.88;1.50;;;9.40;95.90;;;;;;5127513;28;20106;-75
2021/04/17 09:35:55;;;;;;;3.05;1.05;;;9.50;95.50;;;;;;5130182;27;20070;-77
2021/04/17 09:38:22;;;;;;;3.35;1.50;;;9.50;94.50;;;;;;5128087;28;20498;-80
2021/04/17 09:40:53;;;;;;;3.85;1.17;;;9.60;94.50;;;;;;5131034;28;20019;-78
2021/04/17 09:43:33;;;;;;;2.97;1.20;;;9.60;95.10;;;;;;5131328;27;20019;-76
2021/04/17 09:46:01;;;;;;;4.00;1.58;;;9.60;92.50;;;;;;5131057;28;20102;-77
2021/04/17 09:48:38;;;;;;;3.92;1.60;;;9.60;93.90;;;;;;5126599;28;20086;-79
2021/04/17 09:51:03;;;;;;;1.85;1.23;;;9.70;93.70;;;;;;5129675;28;20051;-77
2021/04/17 09:53:31;;;;;;;7.35;1.80;;;9.80;94.40;;;;;;5128921;28;20846;-77
2021/04/17 09:56:03;;;;;;;1.95;1.30;;;10.00;93.60;;;;;;5126185;27;20531;-77
2021/04/17 09:58:37;;;;;;;1.63;1.23;;;10.00;94.00;;;;;;5128714;27;20024;-78
2021/04/17 10:01:14;;;;;;;1.73;1.10;;;10.10;94.80;;;;;;5121302;27;20023;-78
2021/04/17 10:03:42;;;;;;;2.55;1.55;;;10.20;93.30;;;;;;5127411;27;20015;-78
2021/04/17 10:06:29;;;;;;;3.10;1.50;;;10.20;92.50;;;;;;5123736;27;20023;-78
2021/04/17 10:08:56;;;;;;;3.90;1.60;;;10.30;91.90;;;;;;5122977;27;20032;-79
2021/04/17 10:11:27;;;;;;;5.60;1.63;;;10.30;90.80;;;;;;5124668;27;20088;-76
2021/04/17 10:13:54;;;;;;;2.85;1.33;;;10.40;90.30;;;;;;5125728;27;20099;-77
2021/04/17 10:16:31;;;;;;;3.35;1.13;;;10.40;87.00;;;;;;5123396;27;20031;-76
2021/04/17 10:18:59;;;;;;;3.55;1.38;;;10.40;85.40;;;;;;5130105;27;20068;-75
2021/04/17 10:21:29;;;;;;;6.82;2.00;;;10.30;86.20;;;;;;5121896;27;20476;-74
2021/04/17 10:24:13;;;;;;;3.67;1.45;;;10.40;85.30;;;;;;5121686;27;20368;-75
2021/04/17 10:26:48;;;;;;;2.90;1.13;;;10.40;85.40;;;;;;5124175;27;20128;-76
2021/04/17 10:29:14;;;;;;;2.75;1.27;;;10.40;85.50;;;;;;5102876;27;20044;-77
2021/04/17 10:31:40;;;;;;;2.97;1.40;;;10.50;84.50;;;;;;5126724;27;20031;-75
2021/04/17 10:34:05;;;;;;;2.67;1.42;;;10.50;86.00;;;;;;5130418;27;20026;-76
2021/04/17 10:36:31;;;;;;;5.20;1.60;;;10.60;83.10;;;;;;5127916;27;20027;-76
2021/04/17 10:39:08;;;;;;;7.53;1.45;;;10.70;82.00;;;;;;5127994;27;20034;-76
2021/04/17 10:41:35;;;;;;;3.63;1.30;;;10.50;78.50;;;;;;5127949;27;20024;-76
2021/04/17 10:44:13;;;;;;;4.90;1.42;;;10.60;80.60;;;;;;5130010;27;20052;-77
2021/04/17 10:46:43;;;;;;;3.88;1.08;;;10.60;78.80;;;;;;5128219;27;20062;-77
2021/04/17 10:49:09;;;;;;;2.47;1.48;;;10.60;77.40;;;;;;5120097;27;20053;-74
2021/04/17 10:51:38;;;;;;;6.40;1.50;;;10.60;78.60;;;;;;5126405;27;20476;-76
2021/04/17 10:54:04;;;;;;;3.80;1.83;;;10.60;81.00;;;;;;5133821;27;20090;-75
2021/04/17 10:56:31;;;;;;;4.15;1.55;;;10.70;81.00;;;;;;5124211;27;20027;-77
2021/04/17 10:59:02;;;;;;;6.15;1.70;;;10.70;75.30;;;;;;5115556;28;20028;-75
2021/04/17 11:01:31;;;;;;;3.97;2.30;;;10.70;79.10;;;;;;5115065;28;20023;-76
2021/04/17 11:04:00;;;;;;;3.45;1.58;;;10.80;79.00;;;;;;5118559;27;21676;-74
2021/04/17 11:06:28;;;;;;;3.15;1.65;;;10.80;78.00;;;;;;5136042;27;20423;-75
2021/04/17 11:09:10;;;;;;;3.75;1.58;;;10.80;78.30;;;;;;5132129;27;20486;-77
2021/04/17 11:11:37;;;;;;;5.00;2.05;;;10.90;77.60;;;;;;5132788;27;20046;-76
2021/04/17 11:14:05;;;;;;;2.70;1.80;;;11.00;76.60;;;;;;5129374;27;20034;-76
2021/04/17 11:16:41;;;;;;;6.13;1.90;;;11.00;76.80;;;;;;5134119;27;20036;-75
2021/04/17 11:19:34;;;;;;;2.65;1.50;;;11.00;76.70;;;;;;5133064;27;20034;-76
2021/04/17 11:22:09;;;;;;;5.50;2.20;;;11.00;77.70;;;;;;5132191;27;20046;-76
2021/04/17 11:24:35;;;;;;;5.38;2.08;;;11.20;78.30;;;;;;5130784;27;20402;-75
2021/04/17 11:27:04;;;;;;;4.90;2.00;;;11.20;76.60;;;;;;5132684;27;20023;-76
2021/04/17 11:29:29;;;;;;;3.40;1.70;;;11.30;77.90;;;;;;5132619;27;20027;-76
2021/04/17 11:31:55;;;;;;;6.47;1.95;;;11.30;76.00;;;;;;5132281;27;20031;-77
2021/04/17 11:34:20;;;;;;;3.13;1.70;;;11.30;78.10;;;;;;5132458;27;20059;-75
2021/04/17 11:36:46;;;;;;;4.50;2.00;;;11.30;75.90;;;;;;5133090;27;20493;-74
2021/04/17 11:39:12;;;;;;;4.60;1.65;;;11.30;76.90;;;;;;5131960;27;20110;-75
2021/04/17 11:41:38;;;;;;;4.28;2.00;;;11.40;78.90;;;;;;5132674;27;20118;-76
2021/04/17 11:44:05;;;;;;;4.85;1.85;;;11.50;78.10;;;;;;5132977;27;20114;-76
2021/04/17 11:46:31;;;;;;;2.25;1.80;;;11.40;75.90;;;;;;5129789;27;20031;-76
2021/04/17 11:48:56;;;;;;;4.20;1.92;;;11.50;75.70;;;;;;5132213;27;20091;-76
2021/04/17 11:51:22;;;;;;;7.32;2.00;;;11.50;75.50;;;;;;5132008;27;20475;-77
2021/04/17 11:53:48;;;;;;;4.57;2.10;;;11.60;74.50;;;;;;5132324;27;20497;-76
2021/04/17 11:56:14;;;;;;;4.15;1.90;;;11.60;72.50;;;;;;5129967;27;20068;-75
2021/04/17 11:58:46;;;;;;;4.45;2.22;;;11.50;74.30;;;;;;5126480;27;20047;-75
2021/04/17 12:01:12;;;;;;;4.30;2.30;;;11.40;74.40;;;;;;5122120;27;20035;-75
2021/04/17 12:03:39;;;;;;;8.02;2.15;;;11.50;75.00;;;;;;5126350;27;20027;-77
2021/04/17 12:06:06;;;;;;;4.35;1.90;;;11.50;75.40;;;;;;5124652;27;20027;-77
2021/04/17 12:08:32;;;;;;;4.82;2.20;;;11.60;74.50;;;;;;5123659;27;20053;-77
2021/04/17 12:10:58;;;;;;;5.32;2.17;;;11.70;74.40;;;;;;5126480;27;20107;-77
2021/04/17 12:13:23;;;;;;;3.38;2.15;;;11.80;73.20;;;;;;5130288;27;20031;-77
2021/04/17 12:15:50;;;;;;;6.32;2.40;;;11.80;74.90;;;;;;5125192;27;20023;-77
2021/04/17 12:18:16;;;;;;;8.25;2.47;;;11.90;74.10;;;;;;5125173;27;20023;-75
2021/04/17 12:20:43;;;;;;;2.80;1.80;;;11.80;71.70;;;;;;5124518;27;20023;-76
2021/04/17 12:23:09;;;;;;;4.93;1.63;;;11.80;71.70;;;;;;5127549;27;20527;-76
2021/04/17 12:25:35;;;;;;;3.58;2.13;;;11.80;73.80;;;;;;5119561;27;20023;-76
2021/04/17 12:28:00;;;;;;;3.10;1.67;;;11.90;73.70;;;;;;5116323;27;20122;-76
2021/04/17 12:30:26;;;;;;;12.93;2.47;;;11.80;74.10;;;;;;5124233;27;20051;-75
2021/04/17 12:32:52;;;;;;;3.25;2.30;;;11.90;73.80;;;;;;5129702;27;20547;-74
2021/04/17 12:35:20;;;;;;;3.95;2.08;;;12.00;75.40;;;;;;5122491;27;20020;-75
2021/04/17 12:37:46;;;;;;;3.80;2.33;;;12.00;74.50;;;;;;5129594;27;20087;-74
2021/04/17 12:40:13;;;;;;;3.90;1.80;;;12.10;72.80;;;;;;5125884;27;20024;-74
2021/04/17 12:42:39;;;;;;;3.00;1.73;;;12.10;73.00;;;;;;5124720;27;20067;-74
2021/04/17 12:45:06;;;;;;;5.38;2.08;;;12.20;71.70;;;;;;5129371;27;20043;-75
2021/04/17 12:47:32;;;;;;;4.03;1.98;;;12.30;72.80;;;;;;5122860;27;20060;-74
2021/04/17 12:49:57;;;;;;;4.65;2.42;;;12.20;70.20;;;;;;5105848;27;20380;-75
2021/04/17 12:52:24;;;;;;;8.43;2.25;;;12.20;68.70;;;;;;5120423;27;20137;-76
2021/04/17 12:54:49;;;;;;;3.67;1.83;;;12.10;71.50;;;;;;5121586;27;20076;-77
2021/04/17 12:57:15;;;;;;;3.00;1.98;;;12.20;72.20;;;;;;5118895;28;20023;-77